Capitol Reef, Utah
Current Conditions -  °F | °C
As of 4:53 AM on Thursday 18 Dec 2014 (Local Time) from KBCE Reporting Station
Overcast Overcast  
Wind Chill: 20°   Ceiling: 7500
Heat Index: 20°   Visibility: 10mi
Dew Point: 17°   Wind: 0mph
Humidity: 89%   Direction: NA
Pressure: 30.06"   Gusts: NA
Location:  38.2517°N, 111.706°W
Report Text: KBCE 181153Z AUTO 00000KT 10SM OVC075 M07/M08 A3006 RMK AO2 SLP176 60000 70019 T10671083 11056 21133 51001
Loading
Personal Weather Stations






























Interactive Weather Map New forecast layout! Learn more

10-Day Weather Forecast

Advertisements
Track Severe Weather on mobile